sensor_id;sensor_type;location;lat;lon;timestamp;P1;durP1;ratioP1;P2;durP2;ratioP2
515;SDS011;244;48.508;9.052;2024-03-23T00:53:07;1.43;;;1.33;;
515;SDS011;244;48.508;9.052;2024-03-23T00:55:33;1.27;;;1.17;;
515;SDS011;244;48.508;9.052;2024-03-23T00:58:00;3.00;;;1.43;;
515;SDS011;244;48.508;9.052;2024-03-23T01:00:26;1.83;;;1.27;;
515;SDS011;244;48.508;9.052;2024-03-23T01:02:53;1.97;;;1.80;;
515;SDS011;244;48.508;9.052;2024-03-23T01:05:19;1.30;;;1.20;;
515;SDS011;244;48.508;9.052;2024-03-23T01:07:46;2.23;;;1.57;;
515;SDS011;244;48.508;9.052;2024-03-23T01:10:13;1.87;;;1.77;;
515;SDS011;244;48.508;9.052;2024-03-23T01:12:40;1.60;;;1.50;;
515;SDS011;244;48.508;9.052;2024-03-23T01:15:07;1.87;;;1.70;;
515;SDS011;244;48.508;9.052;2024-03-23T01:17:33;1.37;;;1.27;;
515;SDS011;244;48.508;9.052;2024-03-23T01:20:00;1.40;;;1.30;;
515;SDS011;244;48.508;9.052;2024-03-23T01:22:26;1.20;;;1.10;;
515;SDS011;244;48.508;9.052;2024-03-23T01:24:53;2.00;;;1.90;;
515;SDS011;244;48.508;9.052;2024-03-23T01:27:20;1.17;;;0.70;;
515;SDS011;244;48.508;9.052;2024-03-23T01:29:47;1.43;;;1.33;;
515;SDS011;244;48.508;9.052;2024-03-23T01:32:13;3.80;;;1.80;;
515;SDS011;244;48.508;9.052;2024-03-23T01:34:40;1.23;;;1.17;;
515;SDS011;244;48.508;9.052;2024-03-23T01:37:05;2.50;;;2.37;;
515;SDS011;244;48.508;9.052;2024-03-23T01:39:32;1.87;;;1.77;;
515;SDS011;244;48.508;9.052;2024-03-23T01:41:58;2.17;;;1.40;;
515;SDS011;244;48.508;9.052;2024-03-23T01:44:26;2.30;;;2.10;;
515;SDS011;244;48.508;9.052;2024-03-23T01:46:52;1.83;;;1.73;;
515;SDS011;244;48.508;9.052;2024-03-23T01:49:19;1.50;;;1.43;;
515;SDS011;244;48.508;9.052;2024-03-23T01:51:46;1.47;;;1.37;;
515;SDS011;244;48.508;9.052;2024-03-23T01:54:13;1.67;;;1.53;;
515;SDS011;244;48.508;9.052;2024-03-23T01:56:39;1.87;;;1.77;;
515;SDS011;244;48.508;9.052;2024-03-23T01:59:06;2.27;;;2.07;;
515;SDS011;244;48.508;9.052;2024-03-23T02:01:34;3.57;;;1.70;;
515;SDS011;244;48.508;9.052;2024-03-23T02:04:02;1.83;;;1.73;;
515;SDS011;244;48.508;9.052;2024-03-23T02:06:28;1.53;;;1.43;;
515;SDS011;244;48.508;9.052;2024-03-23T02:08:55;2.43;;;2.23;;
515;SDS011;244;48.508;9.052;2024-03-23T02:11:21;2.70;;;2.10;;
515;SDS011;244;48.508;9.052;2024-03-23T02:13:48;2.07;;;1.93;;
515;SDS011;244;48.508;9.052;2024-03-23T02:16:14;2.03;;;1.90;;
515;SDS011;244;48.508;9.052;2024-03-23T02:18:42;1.87;;;1.77;;
515;SDS011;244;48.508;9.052;2024-03-23T02:21:08;3.47;;;1.27;;
515;SDS011;244;48.508;9.052;2024-03-23T02:23:36;1.67;;;1.60;;
515;SDS011;244;48.508;9.052;2024-03-23T02:26:02;2.03;;;1.47;;
515;SDS011;244;48.508;9.052;2024-03-23T02:28:29;2.57;;;2.37;;
515;SDS011;244;48.508;9.052;2024-03-23T02:30:55;1.43;;;1.33;;
515;SDS011;244;48.508;9.052;2024-03-23T02:33:23;1.63;;;1.53;;
515;SDS011;244;48.508;9.052;2024-03-23T02:35:49;2.53;;;2.03;;
515;SDS011;244;48.508;9.052;2024-03-23T02:38:16;2.20;;;1.73;;
515;SDS011;244;48.508;9.052;2024-03-23T02:40:43;1.70;;;1.60;;
515;SDS011;244;48.508;9.052;2024-03-23T02:43:10;3.30;;;1.73;;
515;SDS011;244;48.508;9.052;2024-03-23T02:45:36;1.23;;;1.13;;
515;SDS011;244;48.508;9.052;2024-03-23T02:48:03;2.17;;;1.97;;
515;SDS011;244;48.508;9.052;2024-03-23T02:50:29;2.37;;;2.17;;
515;SDS011;244;48.508;9.052;2024-03-23T02:52:56;2.10;;;1.20;;
515;SDS011;244;48.508;9.052;2024-03-23T02:55:22;3.27;;;2.57;;
515;SDS011;244;48.508;9.052;2024-03-23T02:57:50;1.63;;;1.43;;
515;SDS011;244;48.508;9.052;2024-03-23T03:00:16;1.70;;;1.60;;
515;SDS011;244;48.508;9.052;2024-03-23T03:02:43;1.23;;;1.13;;
515;SDS011;244;48.508;9.052;2024-03-23T03:05:09;1.70;;;1.60;;
515;SDS011;244;48.508;9.052;2024-03-23T03:07:37;5.30;;;3.40;;
515;SDS011;244;48.508;9.052;2024-03-23T03:10:06;1.90;;;1.80;;
515;SDS011;244;48.508;9.052;2024-03-23T03:12:36;2.07;;;1.57;;
515;SDS011;244;48.508;9.052;2024-03-23T03:15:04;1.23;;;1.17;;
515;SDS011;244;48.508;9.052;2024-03-23T03:17:31;1.40;;;1.30;;
515;SDS011;244;48.508;9.052;2024-03-23T03:19:57;1.77;;;1.67;;
515;SDS011;244;48.508;9.052;2024-03-23T03:22:24;1.43;;;1.37;;
515;SDS011;244;48.508;9.052;2024-03-23T03:24:50;2.00;;;1.70;;
515;SDS011;244;48.508;9.052;2024-03-23T03:27:17;2.07;;;1.93;;
515;SDS011;244;48.508;9.052;2024-03-23T03:29:43;1.33;;;1.23;;
515;SDS011;244;48.508;9.052;2024-03-23T03:32:11;1.27;;;1.17;;
515;SDS011;244;48.508;9.052;2024-03-23T03:34:37;2.47;;;2.07;;
515;SDS011;244;48.508;9.052;2024-03-23T03:37:04;3.60;;;1.67;;
515;SDS011;244;48.508;9.052;2024-03-23T03:39:30;1.90;;;1.63;;
515;SDS011;244;48.508;9.052;2024-03-23T03:41:57;3.33;;;1.40;;
515;SDS011;244;48.508;9.052;2024-03-23T03:44:23;2.20;;;2.03;;
515;SDS011;244;48.508;9.052;2024-03-23T03:46:49;2.13;;;1.50;;
515;SDS011;244;48.508;9.052;2024-03-23T03:49:17;2.00;;;1.63;;
515;SDS011;244;48.508;9.052;2024-03-23T03:51:44;1.23;;;1.13;;
515;SDS011;244;48.508;9.052;2024-03-23T03:54:09;2.03;;;1.93;;
515;SDS011;244;48.508;9.052;2024-03-23T03:56:36;1.80;;;1.70;;
515;SDS011;244;48.508;9.052;2024-03-23T03:59:02;3.20;;;1.97;;
515;SDS011;244;48.508;9.052;2024-03-23T04:01:29;1.33;;;1.30;;
515;SDS011;244;48.508;9.052;2024-03-23T04:03:55;6.47;;;1.80;;
515;SDS011;244;48.508;9.052;2024-03-23T04:06:23;3.00;;;2.53;;
515;SDS011;244;48.508;9.052;2024-03-23T04:08:49;1.73;;;1.63;;
515;SDS011;244;48.508;9.052;2024-03-23T04:11:16;1.27;;;1.20;;
515;SDS011;244;48.508;9.052;2024-03-23T04:13:43;1.80;;;1.70;;
515;SDS011;244;48.508;9.052;2024-03-23T04:16:10;2.73;;;2.53;;
515;SDS011;244;48.508;9.052;2024-03-23T04:18:35;4.13;;;2.93;;
515;SDS011;244;48.508;9.052;2024-03-23T04:21:02;2.37;;;2.20;;
515;SDS011;244;48.508;9.052;2024-03-23T04:23:30;1.63;;;1.30;;
515;SDS011;244;48.508;9.052;2024-03-23T04:26:02;3.33;;;1.83;;
515;SDS011;244;48.508;9.052;2024-03-23T04:28:28;2.57;;;2.00;;
515;SDS011;244;48.508;9.052;2024-03-23T04:30:55;1.90;;;1.80;;
515;SDS011;244;48.508;9.052;2024-03-23T04:33:21;1.13;;;1.03;;
515;SDS011;244;48.508;9.052;2024-03-23T04:35:48;3.60;;;2.00;;
515;SDS011;244;48.508;9.052;2024-03-23T04:38:14;2.50;;;1.60;;
515;SDS011;244;48.508;9.052;2024-03-23T04:40:43;1.47;;;1.37;;
515;SDS011;244;48.508;9.052;2024-03-23T04:43:09;2.53;;;2.33;;
515;SDS011;244;48.508;9.052;2024-03-23T04:45:36;1.70;;;1.60;;
515;SDS011;244;48.508;9.052;2024-03-23T04:48:03;1.33;;;1.23;;
515;SDS011;244;48.508;9.052;2024-03-23T04:50:33;1.30;;;1.20;;
515;SDS011;244;48.508;9.052;2024-03-23T04:53:00;3.07;;;1.80;;
515;SDS011;244;48.508;9.052;2024-03-23T04:55:27;1.70;;;1.47;;
515;SDS011;244;48.508;9.052;2024-03-23T04:57:56;2.97;;;1.60;;
515;SDS011;244;48.508;9.052;2024-03-23T05:00:21;2.67;;;1.50;;
515;SDS011;244;48.508;9.052;2024-03-23T05:02:48;2.20;;;1.97;;
515;SDS011;244;48.508;9.052;2024-03-23T05:05:14;2.40;;;2.20;;
515;SDS011;244;48.508;9.052;2024-03-23T05:07:41;1.67;;;1.57;;
515;SDS011;244;48.508;9.052;2024-03-23T05:10:08;2.20;;;2.00;;
515;SDS011;244;48.508;9.052;2024-03-23T05:12:36;2.60;;;2.30;;
515;SDS011;244;48.508;9.052;2024-03-23T05:15:03;0.63;;;0.63;;
515;SDS011;244;48.508;9.052;2024-03-23T05:17:31;1.07;;;0.97;;
515;SDS011;244;48.508;9.052;2024-03-23T05:19:57;1.37;;;0.80;;
515;SDS011;244;48.508;9.052;2024-03-23T05:22:24;0.60;;;0.60;;
515;SDS011;244;48.508;9.052;2024-03-23T05:24:49;2.20;;;0.70;;
515;SDS011;244;48.508;9.052;2024-03-23T05:27:17;0.80;;;0.70;;
515;SDS011;244;48.508;9.052;2024-03-23T05:29:43;0.80;;;0.70;;
515;SDS011;244;48.508;9.052;2024-03-23T05:32:11;2.33;;;2.10;;
515;SDS011;244;48.508;9.052;2024-03-23T05:34:37;2.37;;;1.87;;
515;SDS011;244;48.508;9.052;2024-03-23T05:37:04;0.87;;;0.83;;
515;SDS011;244;48.508;9.052;2024-03-23T05:39:30;3.80;;;2.40;;
515;SDS011;244;48.508;9.052;2024-03-23T05:41:56;1.40;;;1.30;;
515;SDS011;244;48.508;9.052;2024-03-23T05:44:22;1.50;;;1.30;;
515;SDS011;244;48.508;9.052;2024-03-23T05:46:49;2.03;;;1.70;;
515;SDS011;244;48.508;9.052;2024-03-23T05:49:16;1.40;;;1.07;;
515;SDS011;244;48.508;9.052;2024-03-23T05:51:43;2.90;;;2.07;;
515;SDS011;244;48.508;9.052;2024-03-23T05:54:09;4.50;;;1.93;;
515;SDS011;244;48.508;9.052;2024-03-23T05:56:36;2.10;;;1.43;;
515;SDS011;244;48.508;9.052;2024-03-23T05:59:02;2.10;;;1.47;;
515;SDS011;244;48.508;9.052;2024-03-23T06:01:29;1.00;;;0.93;;
515;SDS011;244;48.508;9.052;2024-03-23T06:04:00;0.93;;;0.83;;
515;SDS011;244;48.508;9.052;2024-03-23T06:06:29;1.13;;;1.03;;
515;SDS011;244;48.508;9.052;2024-03-23T06:08:55;0.50;;;0.50;;
515;SDS011;244;48.508;9.052;2024-03-23T06:11:22;1.47;;;1.03;;
515;SDS011;244;48.508;9.052;2024-03-23T06:13:48;2.40;;;1.67;;
515;SDS011;244;48.508;9.052;2024-03-23T06:16:15;0.90;;;0.80;;
515;SDS011;244;48.508;9.052;2024-03-23T06:18:41;2.00;;;1.33;;
515;SDS011;244;48.508;9.052;2024-03-23T06:21:12;2.70;;;1.40;;
515;SDS011;244;48.508;9.052;2024-03-23T06:23:40;0.90;;;0.80;;
515;SDS011;244;48.508;9.052;2024-03-23T06:26:07;1.30;;;1.20;;
515;SDS011;244;48.508;9.052;2024-03-23T06:28:33;1.27;;;1.10;;
515;SDS011;244;48.508;9.052;2024-03-23T06:31:00;1.00;;;0.80;;
515;SDS011;244;48.508;9.052;2024-03-23T06:33:27;0.60;;;0.50;;
515;SDS011;244;48.508;9.052;2024-03-23T06:35:54;0.63;;;0.57;;
515;SDS011;244;48.508;9.052;2024-03-23T06:38:20;0.97;;;0.60;;
515;SDS011;244;48.508;9.052;2024-03-23T06:40:48;0.60;;;0.50;;
515;SDS011;244;48.508;9.052;2024-03-23T06:43:15;0.97;;;0.97;;
515;SDS011;244;48.508;9.052;2024-03-23T06:45:42;0.57;;;0.40;;
515;SDS011;244;48.508;9.052;2024-03-23T06:48:08;0.63;;;0.30;;
515;SDS011;244;48.508;9.052;2024-03-23T06:50:35;0.50;;;0.40;;
515;SDS011;244;48.508;9.052;2024-03-23T06:53:02;0.30;;;0.30;;
515;SDS011;244;48.508;9.052;2024-03-23T06:55:30;0.30;;;0.30;;
515;SDS011;244;48.508;9.052;2024-03-23T06:57:59;0.50;;;0.33;;
515;SDS011;244;48.508;9.052;2024-03-23T07:00:24;0.40;;;0.40;;
515;SDS011;244;48.508;9.052;2024-03-23T07:02:51;0.40;;;0.33;;
515;SDS011;244;48.508;9.052;2024-03-23T07:05:17;0.60;;;0.50;;
515;SDS011;244;48.508;9.052;2024-03-23T07:07:44;2.27;;;0.40;;
515;SDS011;244;48.508;9.052;2024-03-23T07:10:10;0.43;;;0.30;;
515;SDS011;244;48.508;9.052;2024-03-23T07:12:39;0.30;;;0.30;;
515;SDS011;244;48.508;9.052;2024-03-23T07:15:07;3.80;;;0.87;;
515;SDS011;244;48.508;9.052;2024-03-23T07:17:34;0.80;;;0.77;;
515;SDS011;244;48.508;9.052;2024-03-23T07:20:00;0.30;;;0.20;;
515;SDS011;244;48.508;9.052;2024-03-23T07:22:28;0.47;;;0.43;;
515;SDS011;244;48.508;9.052;2024-03-23T07:24:54;0.30;;;0.27;;
515;SDS011;244;48.508;9.052;2024-03-23T07:27:21;1.80;;;1.70;;
515;SDS011;244;48.508;9.052;2024-03-23T07:29:48;0.30;;;0.30;;
515;SDS011;244;48.508;9.052;2024-03-23T07:32:17;0.70;;;0.60;;
515;SDS011;244;48.508;9.052;2024-03-23T07:34:42;0.67;;;0.30;;
515;SDS011;244;48.508;9.052;2024-03-23T07:37:09;0.40;;;0.40;;
515;SDS011;244;48.508;9.052;2024-03-23T07:39:45;0.30;;;0.30;;
515;SDS011;244;48.508;9.052;2024-03-23T07:42:12;0.50;;;0.40;;
515;SDS011;244;48.508;9.052;2024-03-23T07:44:38;0.33;;;0.30;;
515;SDS011;244;48.508;9.052;2024-03-23T07:47:05;0.60;;;0.53;;
515;SDS011;244;48.508;9.052;2024-03-23T07:49:32;0.30;;;0.30;;
515;SDS011;244;48.508;9.052;2024-03-23T07:51:59;0.30;;;0.23;;
515;SDS011;244;48.508;9.052;2024-03-23T07:54:25;0.40;;;0.30;;
515;SDS011;244;48.508;9.052;2024-03-23T07:56:51;0.30;;;0.30;;
515;SDS011;244;48.508;9.052;2024-03-23T07:59:17;0.30;;;0.30;;
515;SDS011;244;48.508;9.052;2024-03-23T08:01:44;0.40;;;0.40;;
515;SDS011;244;48.508;9.052;2024-03-23T08:04:10;0.30;;;0.23;;
515;SDS011;244;48.508;9.052;2024-03-23T08:06:39;0.87;;;0.43;;
515;SDS011;244;48.508;9.052;2024-03-23T08:09:04;0.30;;;0.30;;
515;SDS011;244;48.508;9.052;2024-03-23T08:11:31;0.40;;;0.30;;
515;SDS011;244;48.508;9.052;2024-03-23T08:13:59;0.30;;;0.20;;
515;SDS011;244;48.508;9.052;2024-03-23T08:16:27;0.30;;;0.30;;
515;SDS011;244;48.508;9.052;2024-03-23T08:18:53;0.70;;;0.60;;
515;SDS011;244;48.508;9.052;2024-03-23T08:21:20;0.30;;;0.30;;
515;SDS011;244;48.508;9.052;2024-03-23T08:23:53;0.57;;;0.30;;
515;SDS011;244;48.508;9.052;2024-03-23T08:26:20;0.40;;;0.30;;
515;SDS011;244;48.508;9.052;2024-03-23T08:28:46;0.30;;;0.30;;
515;SDS011;244;48.508;9.052;2024-03-23T08:31:13;0.40;;;0.30;;
515;SDS011;244;48.508;9.052;2024-03-23T08:33:42;0.60;;;0.50;;
515;SDS011;244;48.508;9.052;2024-03-23T08:36:09;0.40;;;0.30;;
515;SDS011;244;48.508;9.052;2024-03-23T08:38:37;0.60;;;0.40;;
515;SDS011;244;48.508;9.052;2024-03-23T08:41:06;0.50;;;0.50;;
515;SDS011;244;48.508;9.052;2024-03-23T08:43:36;0.93;;;0.60;;
515;SDS011;244;48.508;9.052;2024-03-23T08:46:04;1.77;;;0.70;;
515;SDS011;244;48.508;9.052;2024-03-23T08:48:35;0.90;;;0.60;;
515;SDS011;244;48.508;9.052;2024-03-23T08:51:03;0.97;;;0.50;;
515;SDS011;244;48.508;9.052;2024-03-23T08:53:29;2.10;;;1.37;;
515;SDS011;244;48.508;9.052;2024-03-23T08:56:03;1.37;;;0.50;;
515;SDS011;244;48.508;9.052;2024-03-23T08:58:31;0.70;;;0.60;;
515;SDS011;244;48.508;9.052;2024-03-23T09:01:03;0.93;;;0.83;;
515;SDS011;244;48.508;9.052;2024-03-23T09:03:30;0.40;;;0.40;;
515;SDS011;244;48.508;9.052;2024-03-23T09:05:57;0.80;;;0.73;;
515;SDS011;244;48.508;9.052;2024-03-23T09:08:23;1.20;;;1.10;;
515;SDS011;244;48.508;9.052;2024-03-23T09:10:53;1.33;;;1.23;;
515;SDS011;244;48.508;9.052;2024-03-23T09:13:19;0.67;;;0.50;;
515;SDS011;244;48.508;9.052;2024-03-23T09:15:47;13.03;;;1.13;;
515;SDS011;244;48.508;9.052;2024-03-23T09:18:15;1.80;;;0.97;;
515;SDS011;244;48.508;9.052;2024-03-23T09:20:42;1.67;;;0.73;;
515;SDS011;244;48.508;9.052;2024-03-23T09:23:08;0.67;;;0.57;;
515;SDS011;244;48.508;9.052;2024-03-23T09:25:38;1.90;;;1.17;;
515;SDS011;244;48.508;9.052;2024-03-23T09:28:07;2.20;;;1.00;;
515;SDS011;244;48.508;9.052;2024-03-23T09:30:39;0.70;;;0.50;;
515;SDS011;244;48.508;9.052;2024-03-23T09:33:09;1.23;;;1.03;;
515;SDS011;244;48.508;9.052;2024-03-23T09:35:38;0.90;;;0.80;;
515;SDS011;244;48.508;9.052;2024-03-23T09:38:43;1.10;;;0.87;;
515;SDS011;244;48.508;9.052;2024-03-23T09:40:56;1.63;;;0.70;;
515;SDS011;244;48.508;9.052;2024-03-23T09:43:25;0.90;;;0.70;;
515;SDS011;244;48.508;9.052;2024-03-23T09:45:52;3.53;;;1.13;;
515;SDS011;244;48.508;9.052;2024-03-23T09:48:20;3.03;;;0.90;;
515;SDS011;244;48.508;9.052;2024-03-23T09:50:47;5.43;;;1.60;;
515;SDS011;244;48.508;9.052;2024-03-23T09:53:14;0.97;;;0.93;;
515;SDS011;244;48.508;9.052;2024-03-23T09:55:41;1.27;;;1.17;;
515;SDS011;244;48.508;9.052;2024-03-23T09:58:11;0.97;;;0.90;;
515;SDS011;244;48.508;9.052;2024-03-23T10:00:39;1.10;;;1.00;;
515;SDS011;244;48.508;9.052;2024-03-23T10:03:11;1.97;;;1.50;;
515;SDS011;244;48.508;9.052;2024-03-23T10:05:42;1.13;;;1.10;;
515;SDS011;244;48.508;9.052;2024-03-23T10:08:18;1.33;;;1.33;;
515;SDS011;244;48.508;9.052;2024-03-23T10:10:45;1.50;;;1.37;;
515;SDS011;244;48.508;9.052;2024-03-23T10:13:14;2.43;;;1.43;;
515;SDS011;244;48.508;9.052;2024-03-23T10:15:54;2.30;;;1.40;;
515;SDS011;244;48.508;9.052;2024-03-23T10:18:22;1.30;;;1.13;;
515;SDS011;244;48.508;9.052;2024-03-23T10:21:07;2.53;;;1.70;;
515;SDS011;244;48.508;9.052;2024-03-23T10:23:41;1.47;;;1.30;;
515;SDS011;244;48.508;9.052;2024-03-23T10:26:18;1.67;;;1.10;;
515;SDS011;244;48.508;9.052;2024-03-23T10:28:53;0.90;;;0.80;;
515;SDS011;244;48.508;9.052;2024-03-23T10:31:22;0.70;;;0.60;;
515;SDS011;244;48.508;9.052;2024-03-23T10:33:48;1.70;;;1.40;;
515;SDS011;244;48.508;9.052;2024-03-23T10:36:17;0.80;;;0.80;;
515;SDS011;244;48.508;9.052;2024-03-23T10:38:45;0.90;;;0.80;;
515;SDS011;244;48.508;9.052;2024-03-23T10:41:15;3.77;;;1.67;;
515;SDS011;244;48.508;9.052;2024-03-23T10:43:41;1.30;;;1.20;;
515;SDS011;244;48.508;9.052;2024-03-23T10:46:13;0.93;;;0.83;;
515;SDS011;244;48.508;9.052;2024-03-23T10:48:39;1.33;;;1.10;;
515;SDS011;244;48.508;9.052;2024-03-23T10:51:08;1.03;;;0.80;;
515;SDS011;244;48.508;9.052;2024-03-23T10:53:36;2.63;;;1.47;;
515;SDS011;244;48.508;9.052;2024-03-23T10:56:06;0.83;;;0.57;;
515;SDS011;244;48.508;9.052;2024-03-23T10:58:36;1.20;;;1.10;;
515;SDS011;244;48.508;9.052;2024-03-23T11:01:05;0.63;;;0.57;;
515;SDS011;244;48.508;9.052;2024-03-23T11:03:31;0.70;;;0.60;;
515;SDS011;244;48.508;9.052;2024-03-23T11:05:59;0.60;;;0.60;;
515;SDS011;244;48.508;9.052;2024-03-23T11:08:32;0.90;;;0.60;;
515;SDS011;244;48.508;9.052;2024-03-23T11:14:01;0.70;;;0.60;;
515;SDS011;244;48.508;9.052;2024-03-23T11:16:48;0.57;;;0.40;;
515;SDS011;244;48.508;9.052;2024-03-23T11:19:46;3.40;;;0.50;;
515;SDS011;244;48.508;9.052;2024-03-23T11:25:14;0.60;;;0.60;;
515;SDS011;244;48.508;9.052;2024-03-23T11:27:43;1.13;;;0.53;;
515;SDS011;244;48.508;9.052;2024-03-23T11:30:25;0.80;;;0.70;;
515;SDS011;244;48.508;9.052;2024-03-23T11:32:53;0.50;;;0.40;;
515;SDS011;244;48.508;9.052;2024-03-23T11:35:28;0.67;;;0.57;;
515;SDS011;244;48.508;9.052;2024-03-23T11:38:07;0.97;;;0.40;;
515;SDS011;244;48.508;9.052;2024-03-23T11:40:37;0.70;;;0.60;;
515;SDS011;244;48.508;9.052;2024-03-23T11:43:06;0.60;;;0.50;;
515;SDS011;244;48.508;9.052;2024-03-23T11:45:39;2.20;;;0.60;;
515;SDS011;244;48.508;9.052;2024-03-23T11:48:07;1.80;;;0.90;;
515;SDS011;244;48.508;9.052;2024-03-23T11:50:35;0.80;;;0.60;;
515;SDS011;244;48.508;9.052;2024-03-23T11:53:15;1.23;;;0.57;;
515;SDS011;244;48.508;9.052;2024-03-23T11:55:43;0.80;;;0.67;;
515;SDS011;244;48.508;9.052;2024-03-23T11:58:14;0.40;;;0.40;;
515;SDS011;244;48.508;9.052;2024-03-23T12:00:41;1.13;;;1.00;;
515;SDS011;244;48.508;9.052;2024-03-23T12:03:09;1.17;;;0.67;;
515;SDS011;244;48.508;9.052;2024-03-23T12:05:36;0.70;;;0.63;;
515;SDS011;244;48.508;9.052;2024-03-23T12:08:20;2.77;;;0.70;;
515;SDS011;244;48.508;9.052;2024-03-23T12:10:52;3.27;;;0.93;;
515;SDS011;244;48.508;9.052;2024-03-23T12:13:20;1.23;;;0.60;;
515;SDS011;244;48.508;9.052;2024-03-23T12:15:47;1.00;;;0.80;;
515;SDS011;244;48.508;9.052;2024-03-23T12:18:16;4.60;;;0.70;;
515;SDS011;244;48.508;9.052;2024-03-23T12:20:42;0.80;;;0.70;;
515;SDS011;244;48.508;9.052;2024-03-23T12:23:10;1.33;;;1.07;;
515;SDS011;244;48.508;9.052;2024-03-23T12:25:37;0.57;;;0.50;;
515;SDS011;244;48.508;9.052;2024-03-23T12:28:06;0.90;;;0.80;;
515;SDS011;244;48.508;9.052;2024-03-23T12:30:35;2.20;;;0.70;;
515;SDS011;244;48.508;9.052;2024-03-23T12:33:05;0.37;;;0.30;;
515;SDS011;244;48.508;9.052;2024-03-23T12:35:31;0.70;;;0.60;;
515;SDS011;244;48.508;9.052;2024-03-23T12:37:58;0.90;;;0.70;;
515;SDS011;244;48.508;9.052;2024-03-23T12:40:29;0.93;;;0.60;;
515;SDS011;244;48.508;9.052;2024-03-23T12:42:56;0.80;;;0.70;;
515;SDS011;244;48.508;9.052;2024-03-23T12:45:24;5.50;;;1.23;;
515;SDS011;244;48.508;9.052;2024-03-23T12:47:52;0.80;;;0.50;;
515;SDS011;244;48.508;9.052;2024-03-23T12:50:19;0.90;;;0.83;;
515;SDS011;244;48.508;9.052;2024-03-23T12:52:46;0.53;;;0.50;;
515;SDS011;244;48.508;9.052;2024-03-23T12:55:12;3.13;;;0.80;;
515;SDS011;244;48.508;9.052;2024-03-23T12:57:41;3.27;;;1.13;;
515;SDS011;244;48.508;9.052;2024-03-23T13:00:07;1.83;;;0.90;;
515;SDS011;244;48.508;9.052;2024-03-23T13:02:38;0.80;;;0.60;;
515;SDS011;244;48.508;9.052;2024-03-23T13:05:04;1.43;;;0.73;;
515;SDS011;244;48.508;9.052;2024-03-23T13:07:33;0.30;;;0.30;;
515;SDS011;244;48.508;9.052;2024-03-23T13:10:02;2.13;;;1.07;;
515;SDS011;244;48.508;9.052;2024-03-23T13:12:30;1.53;;;0.80;;
515;SDS011;244;48.508;9.052;2024-03-23T13:14:58;6.70;;;1.73;;
515;SDS011;244;48.508;9.052;2024-03-23T13:17:25;0.63;;;0.57;;
515;SDS011;244;48.508;9.052;2024-03-23T13:19:53;0.53;;;0.47;;
515;SDS011;244;48.508;9.052;2024-03-23T13:22:20;1.80;;;0.60;;
515;SDS011;244;48.508;9.052;2024-03-23T13:24:46;0.50;;;0.40;;
515;SDS011;244;48.508;9.052;2024-03-23T13:27:13;0.40;;;0.40;;
515;SDS011;244;48.508;9.052;2024-03-23T13:29:39;0.50;;;0.40;;
515;SDS011;244;48.508;9.052;2024-03-23T13:32:06;1.90;;;1.37;;
515;SDS011;244;48.508;9.052;2024-03-23T13:34:33;0.60;;;0.47;;
515;SDS011;244;48.508;9.052;2024-03-23T13:37:04;0.80;;;0.67;;
515;SDS011;244;48.508;9.052;2024-03-23T13:39:32;0.70;;;0.60;;
515;SDS011;244;48.508;9.052;2024-03-23T13:41:59;0.60;;;0.40;;
515;SDS011;244;48.508;9.052;2024-03-23T13:44:25;0.93;;;0.50;;
515;SDS011;244;48.508;9.052;2024-03-23T13:46:52;1.23;;;0.50;;
515;SDS011;244;48.508;9.052;2024-03-23T13:49:24;2.60;;;0.90;;
515;SDS011;244;48.508;9.052;2024-03-23T13:51:52;0.30;;;0.30;;
515;SDS011;244;48.508;9.052;2024-03-23T13:54:20;0.87;;;0.47;;
515;SDS011;244;48.508;9.052;2024-03-23T13:56:49;0.40;;;0.40;;
515;SDS011;244;48.508;9.052;2024-03-23T13:59:15;0.70;;;0.40;;
515;SDS011;244;48.508;9.052;2024-03-23T14:01:42;0.40;;;0.37;;
515;SDS011;244;48.508;9.052;2024-03-23T14:04:08;2.00;;;0.50;;
515;SDS011;244;48.508;9.052;2024-03-23T14:06:36;0.40;;;0.30;;
515;SDS011;244;48.508;9.052;2024-03-23T14:09:01;1.07;;;0.50;;
515;SDS011;244;48.508;9.052;2024-03-23T14:11:34;0.40;;;0.30;;
515;SDS011;244;48.508;9.052;2024-03-23T14:14:00;0.40;;;0.30;;
515;SDS011;244;48.508;9.052;2024-03-23T14:16:27;13.57;;;2.93;;
515;SDS011;244;48.508;9.052;2024-03-23T14:18:53;1.70;;;0.70;;
515;SDS011;244;48.508;9.052;2024-03-23T14:21:19;1.50;;;0.57;;
515;SDS011;244;48.508;9.052;2024-03-23T14:23:45;1.20;;;0.47;;
515;SDS011;244;48.508;9.052;2024-03-23T14:26:18;0.40;;;0.40;;
515;SDS011;244;48.508;9.052;2024-03-23T14:29:07;0.40;;;0.30;;
515;SDS011;244;48.508;9.052;2024-03-23T14:31:34;0.70;;;0.70;;
515;SDS011;244;48.508;9.052;2024-03-23T14:34:00;0.30;;;0.30;;
515;SDS011;244;48.508;9.052;2024-03-23T14:36:27;0.40;;;0.40;;
515;SDS011;244;48.508;9.052;2024-03-23T14:38:53;0.40;;;0.30;;
515;SDS011;244;48.508;9.052;2024-03-23T14:41:20;0.30;;;0.30;;
515;SDS011;244;48.508;9.052;2024-03-23T14:43:46;0.40;;;0.30;;
515;SDS011;244;48.508;9.052;2024-03-23T14:46:17;0.83;;;0.50;;
515;SDS011;244;48.508;9.052;2024-03-23T14:48:43;0.50;;;0.40;;
515;SDS011;244;48.508;9.052;2024-03-23T14:51:11;1.33;;;0.60;;
515;SDS011;244;48.508;9.052;2024-03-23T14:53:38;2.63;;;0.50;;
515;SDS011;244;48.508;9.052;2024-03-23T14:56:08;0.40;;;0.40;;
515;SDS011;244;48.508;9.052;2024-03-23T14:58:36;0.50;;;0.40;;
515;SDS011;244;48.508;9.052;2024-03-23T15:01:04;0.30;;;0.30;;
515;SDS011;244;48.508;9.052;2024-03-23T15:03:33;0.83;;;0.50;;
515;SDS011;244;48.508;9.052;2024-03-23T15:06:04;3.40;;;0.30;;
515;SDS011;244;48.508;9.052;2024-03-23T15:08:30;0.40;;;0.30;;
515;SDS011;244;48.508;9.052;2024-03-23T15:11:04;0.70;;;0.40;;
515;SDS011;244;48.508;9.052;2024-03-23T15:13:30;0.70;;;0.40;;
515;SDS011;244;48.508;9.052;2024-03-23T15:15:57;0.30;;;0.30;;
515;SDS011;244;48.508;9.052;2024-03-23T15:18:23;1.10;;;0.40;;
515;SDS011;244;48.508;9.052;2024-03-23T15:20:54;0.40;;;0.40;;
515;SDS011;244;48.508;9.052;2024-03-23T15:23:19;0.40;;;0.40;;
515;SDS011;244;48.508;9.052;2024-03-23T15:25:53;1.43;;;0.80;;
515;SDS011;244;48.508;9.052;2024-03-23T15:28:19;0.30;;;0.30;;
515;SDS011;244;48.508;9.052;2024-03-23T15:30:46;1.23;;;0.90;;
515;SDS011;244;48.508;9.052;2024-03-23T15:33:12;0.30;;;0.30;;
515;SDS011;244;48.508;9.052;2024-03-23T15:35:39;1.00;;;0.90;;
515;SDS011;244;48.508;9.052;2024-03-23T15:38:07;0.33;;;0.30;;
515;SDS011;244;48.508;9.052;2024-03-23T15:40:34;2.80;;;1.63;;
515;SDS011;244;48.508;9.052;2024-03-23T15:43:00;0.40;;;0.30;;
515;SDS011;244;48.508;9.052;2024-03-23T15:45:27;0.73;;;0.67;;
515;SDS011;244;48.508;9.052;2024-03-23T15:47:53;1.77;;;1.67;;
515;SDS011;244;48.508;9.052;2024-03-23T15:50:20;0.80;;;0.70;;
515;SDS011;244;48.508;9.052;2024-03-23T15:52:46;0.30;;;0.30;;
515;SDS011;244;48.508;9.052;2024-03-23T15:55:19;0.40;;;0.33;;
515;SDS011;244;48.508;9.052;2024-03-23T15:57:44;1.37;;;0.60;;
515;SDS011;244;48.508;9.052;2024-03-23T16:00:12;1.10;;;0.43;;
515;SDS011;244;48.508;9.052;2024-03-23T16:02:38;0.40;;;0.40;;
515;SDS011;244;48.508;9.052;2024-03-23T16:05:06;1.80;;;0.50;;
515;SDS011;244;48.508;9.052;2024-03-23T16:07:36;0.83;;;0.60;;
515;SDS011;244;48.508;9.052;2024-03-23T16:10:04;0.80;;;0.70;;
515;SDS011;244;48.508;9.052;2024-03-23T16:12:35;0.50;;;0.50;;
515;SDS011;244;48.508;9.052;2024-03-23T16:15:09;0.97;;;0.60;;
515;SDS011;244;48.508;9.052;2024-03-23T16:17:44;1.13;;;0.50;;
515;SDS011;244;48.508;9.052;2024-03-23T16:20:12;0.70;;;0.43;;
515;SDS011;244;48.508;9.052;2024-03-23T16:22:38;0.47;;;0.43;;
515;SDS011;244;48.508;9.052;2024-03-23T16:25:05;2.57;;;0.53;;
515;SDS011;244;48.508;9.052;2024-03-23T16:27:32;0.80;;;0.40;;
515;SDS011;244;48.508;9.052;2024-03-23T16:30:00;0.50;;;0.50;;
515;SDS011;244;48.508;9.052;2024-03-23T16:32:26;0.40;;;0.40;;
515;SDS011;244;48.508;9.052;2024-03-23T16:34:54;0.63;;;0.53;;
515;SDS011;244;48.508;9.052;2024-03-23T16:37:20;0.40;;;0.30;;
515;SDS011;244;48.508;9.052;2024-03-23T16:39:47;2.10;;;0.77;;
515;SDS011;244;48.508;9.052;2024-03-23T16:42:18;0.30;;;0.20;;
515;SDS011;244;48.508;9.052;2024-03-23T16:44:47;0.40;;;0.30;;
515;SDS011;244;48.508;9.052;2024-03-23T16:47:18;0.30;;;0.30;;